Flight Track Log - Related Links

Times and Time Zones

All times are in EST time to prevent confusion due to time zone crossing. See the XOJ552 flight status page for this flight to view local times or setup timezone preferences in your user account.

Time Position Orientation Groundspeed Altitude Reporting Facility
EST Latitude Longitude Course Direction KTS MPH feet Rate Location/Type
Sat 11:46:54 AM 33.4333 -112.0333 270° West 148 170 1,800  Level Phoenix TRACON
Sat 11:47:06 AM 33.4333 -112.0500 270° West 176 203 2,500 3,667 Climbing Phoenix TRACON
Sat 11:48:06 AM 33.4333 -112.1167 270° West 226 260 6,200 3,967 Climbing Phoenix TRACON
Sat 11:49:07 AM 33.4833 -112.1500 331° Northwest 282 325 10,500 3,750 Climbing Phoenix TRACON
Sat 11:50:22 AM 33.5489 -112.0553 50° Northeast 337 388 14,700 2,956 Climbing Albuquerque Center
Sat 11:51:23 AM 33.5683 -111.9322 79° East 380 437 17,200 2,390 Climbing Albuquerque Center
Sat 11:52:25 AM 33.5939 -111.7956 77° East 419 482 19,600 2,081 Climbing Albuquerque Center
Sat 11:53:27 AM 33.6203 -111.6503 78° East 443 510 21,500 2,129 Climbing Albuquerque Center
Sat 11:54:29 AM 33.6547 -111.4617 78° East 489 563 24,000 2,293 Climbing Albuquerque Center
Sat 11:55:30 AM 33.6844 -111.2975 78° East 507 583 26,200 2,098 Climbing Albuquerque Center
Sat 11:56:32 AM 33.7361 -111.1367 69° East 519 597 28,300 1,839 Climbing Albuquerque Center
Sat 11:57:34 AM 33.7922 -110.9731 68° East 530 610 30,000 1,659 Climbing Albuquerque Center
Sat 11:58:35 AM 33.8533 -110.8044 66° East 546 628 31,700 1,805 Climbing Albuquerque Center
Sat 11:59:37 AM 33.9136 -110.6358 67° East 550 633 33,700 2,177 Climbing Albuquerque Center
Sat 12:00:39 PM 33.9817 -110.4392 67° East 539 620 36,200 1,707 Climbing Albuquerque Center
Sat 12:01:40 PM 34.0358 -110.2867 67° East 532 612 37,200 927 Climbing Albuquerque Center
Sat 12:02:42 PM 34.0936 -110.1189 67° East 536 617 38,100 1,016 Climbing Albuquerque Center
Sat 12:03:44 PM 34.1611 -109.9208 68° East 544 626 39,300 976 Climbing Albuquerque Center
Sat 12:04:45 PM 34.2161 -109.7608 67° East 543 625 40,100 829 Climbing Albuquerque Center
Sat 12:05:47 PM 34.2706 -109.6006 68° East 541 623 41,000 435 Climbing Albuquerque Center
Sat 12:06:49 PM 34.3350 -109.4142 67° East 539 620 41,000  Level Albuquerque Center
Sat 12:07:50 PM 34.3897 -109.2514 68° East 542 624 41,000  Level Albuquerque Center
Sat 12:08:52 PM 34.4506 -109.0589 69° East 547 629 41,000  Level Albuquerque Center
Sat 12:09:54 PM 34.4964 -108.8914 72° East 547 629 41,000  Level Albuquerque Center
Sat 12:10:55 PM 34.5500 -108.6933 72° East 551 634 41,000  Level Albuquerque Center
Sat 12:11:57 PM 34.5964 -108.5228 72° East 555 639 41,000  Level Albuquerque Center
Sat 12:12:59 PM 34.6497 -108.3261 72° East 552 635 41,000  Level Albuquerque Center
Sat 12:14:00 PM 34.6956 -108.1561 72° East 553 636 41,000  Level Albuquerque Center
Sat 12:15:02 PM 34.7394 -107.9878 72° East 552 635 41,000  Level Albuquerque Center
Sat 12:16:03 PM 34.7872 -107.8119 72° East 550 633 41,000  Level Albuquerque Center
Sat 12:17:05 PM 34.8322 -107.6356 73° East 547 629 41,000  Level Albuquerque Center
Sat 12:18:07 PM 34.8906 -107.4172 72° East 551 634 41,000  Level Albuquerque Center
Sat 12:19:09 PM 34.9358 -107.2419 72° East 545 627 41,000  Level Albuquerque Center
Sat 12:20:10 PM 34.9811 -107.0650 73° East 548 631 41,000  Level Albuquerque Center
Sat 12:21:12 PM 35.0306 -106.8719 73° East 553 636 41,000 -48 Level Albuquerque Center
Sat 12:22:14 PM 35.0828 -106.7183 67° East 552 635 40,900  Descending Albuquerque Center
Sat 12:23:16 PM 35.1525 -106.5289 66° East 554 638 41,000 49 Climbing Albuquerque Center
Sat 12:24:17 PM 35.2092 -106.3750 66° East 556 640 41,000  Level Albuquerque Center
Sat 12:25:19 PM 35.2836 -106.1742 66° East 548 631 41,000 -48 Level Albuquerque Center
Sat 12:26:21 PM 35.3442 -106.0061 66° East 547 629 40,900  Descending Albuquerque Center
Sat 12:27:23 PM 35.4061 -105.8361 66° East 555 639 41,000 48 Climbing Albuquerque Center
Sat 12:28:25 PM 35.4678 -105.6661 66° East 552 635 41,000  Level Albuquerque Center
Sat 12:29:26 PM 35.5397 -105.4689 66° East 551 634 41,000  Level Albuquerque Center
Sat 12:30:28 PM 35.6017 -105.2939 66° East 552 635 41,000  Level Albuquerque Center
Sat 12:31:30 PM 35.6656 -105.1186 66° East 553 636 41,000  Level Albuquerque Center
Sat 12:32:32 PM 35.7275 -104.9422 67° East 554 638 41,000  Level Albuquerque Center
Sat 12:33:34 PM 35.7894 -104.7636 67° East 558 642 41,000  Level Albuquerque Center
Sat 12:34:35 PM 35.8522 -104.5858 66° East 558 642 41,000  Level Albuquerque Center
Sat 12:35:37 PM 35.9153 -104.4086 66° East 556 640 41,000  Level Albuquerque Center
Sat 12:36:39 PM 35.9767 -104.2297 67° East 557 641 41,000  Level Albuquerque Center
Sat 12:37:41 PM 36.0394 -104.0508 66° East 560 644 41,000  Level Albuquerque Center
Sat 12:38:43 PM 36.1111 -103.8403 67° East 561 646 41,000  Level Albuquerque Center
Sat 12:39:45 PM 36.1739 -103.6594 67° East 564 649 41,000  Level Albuquerque Center
Sat 12:40:46 PM 36.2347 -103.4775 67° East 565 650 41,000  Level Albuquerque Center
Sat 12:41:48 PM 36.2967 -103.2958 67° East 566 651 41,000  Level Albuquerque Center
Sat 12:42:50 PM 36.3553 -103.1131 68° East 566 651 41,000  Level Albuquerque Center
Sat 12:43:52 PM 36.4175 -102.9325 67° East 564 649 41,000  Level Albuquerque Center
Sat 12:44:54 PM 36.4764 -102.7492 68° East 567 652 41,000  Level Albuquerque Center
Sat 12:45:55 PM 36.5358 -102.5669 68° East 568 654 41,000  Level Albuquerque Center
Sat 12:46:57 PM 36.5967 -102.3844 67° East 569 655 41,000  Level Albuquerque Center
Sat 12:47:59 PM 36.6603 -102.1833 68° East 570 656 41,000  Level Albuquerque Center
Sat 12:49:01 PM 36.7267 -101.9789 68° East 570 656 41,000  Level Albuquerque Center
Sat 12:50:03 PM 36.7836 -101.8014 68° East 573 659 41,000  Level Albuquerque Center
Sat 12:51:05 PM 36.8489 -101.5953 68° East 574 661 41,000  Level Albuquerque Center
Sat 12:51:55 PM 36.8950 -101.4481 69° East 575 662 41,000  Level Kansas City Center
Sat 12:52:56 PM 36.9514 -101.2714 68° East 573 659 41,000  Level Kansas City Center
Sat 12:53:57 PM 37.0156 -101.0642 69° East 575 662 41,000  Level Kansas City Center
Sat 12:54:59 PM 37.0656 -100.8831 71° East 578 665 41,000  Level Kansas City Center
Sat 12:56:00 PM 37.1111 -100.6686 75° East 575 662 41,000  Level Kansas City Center
Sat 12:57:02 PM 37.1525 -100.4850 74° East 576 663 41,000  Level Kansas City Center
Sat 12:58:03 PM 37.1919 -100.3003 75° East 576 663 41,000  Level Kansas City Center
Sat 12:59:05 PM 37.2389 -100.0836 75° East 578 665 41,000  Level Kansas City Center
Sat 01:00:07 PM 37.2789 -99.8978 75° East 579 666 41,000  Level Kansas City Center
Sat 01:01:08 PM 37.3250 -99.6792 75° East 581 669 41,000  Level Kansas City Center
Sat 01:02:10 PM 37.3642 -99.4917 75° East 582 670 41,000  Level Kansas City Center
Sat 01:03:11 PM 37.4094 -99.2831 75° East 582 670 41,000  Level Kansas City Center
Sat 01:04:13 PM 37.4483 -99.0867 76° East 581 669 41,000  Level Kansas City Center
Sat 01:05:14 PM 37.4869 -98.8914 76° East 579 666 41,000  Level Kansas City Center
Sat 01:06:16 PM 37.5261 -98.6964 76° East 578 665 41,000  Level Kansas City Center
Sat 01:07:18 PM 37.5658 -98.5011 76° East 577 664 41,000  Level Kansas City Center
Sat 01:08:19 PM 37.6122 -98.2686 76° East 575 662 41,000  Level Kansas City Center
Sat 01:09:21 PM 37.6492 -98.0800 76° East 578 665 41,000  Level Kansas City Center
Sat 01:10:22 PM 37.6867 -97.8825 76° East 577 664 41,000  Level Kansas City Center
Sat 01:11:24 PM 37.7242 -97.6831 77° East 578 665 41,000  Level Kansas City Center
Sat 01:12:25 PM 37.7631 -97.4847 76° East 582 670 41,000  Level Kansas City Center
Sat 01:13:27 PM 37.8058 -97.2556 77° East 580 667 41,000  Level Kansas City Center
Sat 01:14:29 PM 37.8411 -97.0581 77° East 579 666 41,000  Level Kansas City Center
Sat 01:15:30 PM 37.8764 -96.8600 77° East 581 669 41,000  Level Kansas City Center
Sat 01:16:32 PM 37.9122 -96.6603 77° East 583 671 41,000  Level Kansas City Center
Sat 01:17:34 PM 37.9475 -96.4617 77° East 581 669 41,000  Level Kansas City Center
Sat 01:18:35 PM 37.9817 -96.2619 78° East 582 670 41,000  Level Kansas City Center
Sat 01:19:37 PM 38.0197 -96.0394 78° East 574 661 41,000  Level Kansas City Center
Sat 01:20:39 PM 38.0519 -95.8486 78° East 579 666 41,000  Level Kansas City Center
Sat 01:21:41 PM 38.0886 -95.6261 78° East 579 666 41,000  Level Kansas City Center
Sat 01:22:42 PM 38.1206 -95.4358 78° East 577 664 41,000  Level Kansas City Center
Sat 01:23:44 PM 38.1569 -95.2136 78° East 578 665 41,000  Level Kansas City Center
Sat 01:24:46 PM 38.1872 -95.0231 79° East 577 664 41,000  Level Kansas City Center
Sat 01:25:48 PM 38.2225 -94.8017 78° East 575 662 41,000  Level Kansas City Center
Sat 01:26:50 PM 38.2522 -94.6100 79° East 578 665 41,000  Level Kansas City Center
Sat 01:27:51 PM 38.2889 -94.3856 78° East 580 667 41,000  Level Kansas City Center
Sat 01:28:53 PM 38.3194 -94.1936 78° East 580 667 41,000  Level Kansas City Center
Sat 01:29:55 PM 38.3517 -93.9958 78° East 575 662 41,000  Level Kansas City Center
Sat 01:30:57 PM 38.3836 -93.7953 78° East 575 662 41,000  Level Kansas City Center
Sat 01:31:59 PM 38.4167 -93.5917 78° East 579 666 41,000  Level Kansas City Center
Sat 01:33:00 PM 38.4486 -93.3889 79° East 580 667 41,000  Level Kansas City Center
Sat 01:34:02 PM 38.4806 -93.1842 79° East 582 670 41,000  Level Kansas City Center
Sat 01:35:04 PM 38.5181 -92.9394 79° East 581 669 41,000  Level Kansas City Center
Sat 01:36:06 PM 38.5486 -92.7336 79° East 582 670 41,000  Level Kansas City Center
Sat 01:37:08 PM 38.5792 -92.5272 79° East 585 673 41,000  Level Kansas City Center
Sat 01:38:09 PM 38.6086 -92.3183 80° East 587 676 41,000  Level Kansas City Center
Sat 01:39:11 PM 38.6383 -92.1108 80° East 587 676 41,000  Level Kansas City Center
Sat 01:40:13 PM 38.6678 -91.9047 80° East 585 673 41,000  Level Kansas City Center
Sat 01:41:15 PM 38.6972 -91.7003 79° East 582 670 41,000  Level Kansas City Center
Sat 01:42:16 PM 38.7256 -91.4922 80° East 587 676 41,000  Level Kansas City Center
Sat 01:43:18 PM 38.7556 -91.2861 79° East 589 678 41,000  Level Kansas City Center
Sat 01:44:20 PM 38.7831 -91.0806 80° East 588 677 41,000  Level Kansas City Center
Sat 01:45:22 PM 38.8156 -90.8319 80° East 588 677 41,000  Level Kansas City Center
Sat 01:46:23 PM 38.8419 -90.6222 81° East 583 671 41,000  Level Kansas City Center
Sat 01:47:25 PM 38.8708 -90.4158 80° East 584 672 41,000  Level Kansas City Center
Sat 01:48:27 PM 38.9236 -90.2167 71° East 588 677 41,000  Level Kansas City Center
Sat 01:49:28 PM 38.9792 -90.0117 71° East 595 685 41,000  Level Kansas City Center
Sat 01:50:30 PM 39.0286 -89.8133 72° East 586 674 41,000  Level Kansas City Center
Sat 01:51:32 PM 39.0769 -89.6117 73° East 589 678 41,000  Level Kansas City Center
Sat 01:52:33 PM 39.1253 -89.4114 73° East 587 676 41,000  Level Kansas City Center
Sat 01:53:35 PM 39.1736 -89.2100 73° East 589 678 41,000  Level Kansas City Center
Sat 01:54:36 PM 39.2214 -89.0089 73° East 589 678 41,000  Level Kansas City Center
Sat 01:55:38 PM 39.2817 -88.7703 72° East 585 673 41,000  Level Kansas City Center
Sat 01:56:40 PM 39.3264 -88.5744 73° East 586 674 41,000  Level Kansas City Center
Sat 01:57:42 PM 39.3733 -88.3711 73° East 586 674 41,000  Level Kansas City Center
Sat 01:58:43 PM 39.4178 -88.1689 74° East 584 672 41,000  Level Kansas City Center
Sat 01:59:16 PM 39.4394 -88.0764 73° East 588 677 41,000  Level Indianapolis Center
Sat 02:00:17 PM 39.4947 -87.8331 74° East 590 679 41,000  Level Indianapolis Center
Sat 02:01:18 PM 39.5411 -87.6306 73° East 590 679 41,000  Level Indianapolis Center
Sat 02:02:20 PM 39.5853 -87.4261 74° East 592 681 41,000  Level Indianapolis Center
Sat 02:03:21 PM 39.6314 -87.2228 74° East 590 679 41,000  Level Indianapolis Center
Sat 02:04:22 PM 39.6750 -87.0178 74° East 591 680 41,000  Level Indianapolis Center
Sat 02:05:23 PM 39.7203 -86.8136 74° East 591 680 41,000  Level Indianapolis Center
Sat 02:06:25 PM 39.7642 -86.6092 74° East 589 678 41,000  Level Indianapolis Center
Sat 02:07:26 PM 39.8081 -86.4008 75° East 589 678 41,000  Level Indianapolis Center
Sat 02:08:27 PM 39.8333 -86.1903 81° East 585 673 41,000  Level Indianapolis Center
Sat 02:09:28 PM 39.8581 -85.9708 82° East 584 672 41,000  Level Indianapolis Center
Sat 02:10:29 PM 39.8811 -85.7614 82° East 585 673 41,000  Level Indianapolis Center
Sat 02:11:31 PM 39.9031 -85.5525 82° East 585 673 41,000  Level Indianapolis Center
Sat 02:12:32 PM 39.9242 -85.3442 82° East 583 671 41,000  Level Indianapolis Center
Sat 02:13:33 PM 39.9489 -85.0961 83° East 579 666 41,000  Level Indianapolis Center
Sat 02:14:34 PM 39.9711 -84.8844 82° East 582 670 41,000  Level Indianapolis Center
Sat 02:15:36 PM 39.9900 -84.6758 83° East 581 669 41,000 -390 Level Indianapolis Center
Sat 02:16:37 PM 39.9953 -84.4656 88° East 581 669 40,200 -885 Descending Indianapolis Center
Sat 02:17:38 PM 39.9847 -84.2572 94° East 577 664 39,200 -984 Descending Indianapolis Center
Sat 02:18:39 PM 39.9772 -84.0536 93° East 567 652 38,200 -1,131 Descending Indianapolis Center
Sat 02:19:40 PM 39.9664 -83.8525 94° East 558 642 36,900 -2,000 Descending Indianapolis Center
Sat 02:20:42 PM 39.9550 -83.6506 94° East 556 640 34,100 -2,732 Descending Indianapolis Center
Sat 02:21:43 PM 39.9692 -83.4469 85° East 550 633 31,300 -1,918 Descending Indianapolis Center
Sat 02:22:44 PM 39.9969 -83.2467 80° East 551 634 30,200 -1,317 Descending Indianapolis Center
Sat 02:23:46 PM 40.0247 -83.0494 80° East 552 635 28,600 -1,512 Descending Indianapolis Center
Sat 02:24:47 PM 40.0508 -82.8528 80° East 550 633 27,100 -1,475 Descending Indianapolis Center
Sat 02:25:48 PM 40.0767 -82.6619 80° East 539 620 25,600 -1,463 Descending Indianapolis Center
Sat 02:26:50 PM 40.1017 -82.4742 80° East 528 608 24,100 -1,610 Descending Indianapolis Center
Sat 02:27:51 PM 40.1306 -82.2525 80° East 518 596 22,300 -1,610 Descending Indianapolis Center
Sat 02:28:53 PM 40.1542 -82.0714 80° East 510 587 20,800 -1,463 Descending Indianapolis Center
Sat 02:29:54 PM 40.1761 -81.8922 81° East 503 579 19,300 -885 Descending Indianapolis Center
Sat 02:30:55 PM 40.1861 -81.7272 85° East 494 568 19,000 -244 Descending Indianapolis Center
Sat 02:31:57 PM 40.1997 -81.5272 85° East 476 548 18,800 -732 Descending Indianapolis Center
Sat 02:32:58 PM 40.2108 -81.3581 85° East 468 539 17,500 -1,415 Descending Indianapolis Center
Sat 02:34:00 PM 40.2206 -81.1972 85° East 447 514 15,900 -1,469 Descending Indianapolis Center
Sat 02:34:36 PM 40.2278 -81.1056 84° East 442 509 15,100 -1,423 Descending Cleveland Center
Sat 02:35:37 PM 40.2369 -80.9467 86° East 437 503 13,600 -1,512 Descending Cleveland Center
Sat 02:36:39 PM 40.2475 -80.7753 85° East 440 506 12,000 -1,561 Descending Cleveland Center
Sat 02:37:40 PM 40.2714 -80.6478 76° East 396 456 10,400 -1,574 Descending Cleveland Center
Sat 02:38:41 PM 40.2950 -80.5211 76° East 364 419 8,800 -1,672 Descending Cleveland Center
Sat 02:39:42 PM 40.3181 -80.4042 75° East 339 390 7,000 -1,366 Descending Cleveland Center
Sat 02:40:44 PM 40.3469 -80.2847 72° East 326 375 6,000 -634 Descending Cleveland Center
Sat 02:41:45 PM 40.3753 -80.1761 71° East 319 367 5,700 -885 Descending Cleveland Center
Sat 02:42:46 PM 40.4200 -80.0897 56° Northeast 282 325 4,200 -1,220 Descending Cleveland Center
Sat 02:43:48 PM 40.4731 -80.1014 351° North 211 243 3,200 -1,073 Descending Cleveland Center
Sat 02:44:49 PM 40.4858 -80.1628 285° West 160 184 2,000 -1,180 Descending Cleveland Center
Sat 02:46:00 PM 40.4833 -80.2167 303° West  Level FlightAware Approximate

Login

Don't have an account? Register now (free) for customized features, flight alerts, and more!